sensor_id;sensor_type;location;lat;lon;timestamp;P1;durP1;ratioP1;P2;durP2;ratioP2
11344;SDS011;5727;42.600;23.028;2023-06-14T00:00:41;5.53;;;3.83;;
11344;SDS011;5727;42.600;23.028;2023-06-14T00:03:08;4.97;;;4.03;;
11344;SDS011;5727;42.600;23.028;2023-06-14T00:05:37;4.33;;;3.80;;
11344;SDS011;5727;42.600;23.028;2023-06-14T00:08:08;5.23;;;3.43;;
11344;SDS011;5727;42.600;23.028;2023-06-14T00:10:35;4.40;;;4.00;;
11344;SDS011;5727;42.600;23.028;2023-06-14T00:13:05;4.93;;;3.83;;
11344;SDS011;5727;42.600;23.028;2023-06-14T00:15:32;3.93;;;3.53;;
11344;SDS011;5727;42.600;23.028;2023-06-14T00:17:59;6.53;;;4.27;;
11344;SDS011;5727;42.600;23.028;2023-06-14T00:20:26;4.43;;;3.87;;
11344;SDS011;5727;42.600;23.028;2023-06-14T00:22:53;6.00;;;3.70;;
11344;SDS011;5727;42.600;23.028;2023-06-14T00:25:20;6.17;;;3.80;;
11344;SDS011;5727;42.600;23.028;2023-06-14T00:27:46;4.60;;;4.10;;
11344;SDS011;5727;42.600;23.028;2023-06-14T00:30:15;5.60;;;4.30;;
11344;SDS011;5727;42.600;23.028;2023-06-14T00:32:41;4.50;;;3.83;;
11344;SDS011;5727;42.600;23.028;2023-06-14T00:35:09;5.80;;;3.80;;
11344;SDS011;5727;42.600;23.028;2023-06-14T00:37:36;5.07;;;4.13;;
11344;SDS011;5727;42.600;23.028;2023-06-14T00:40:03;6.73;;;4.50;;
11344;SDS011;5727;42.600;23.028;2023-06-14T00:42:31;6.80;;;4.53;;
11344;SDS011;5727;42.600;23.028;2023-06-14T00:44:57;7.80;;;4.97;;
11344;SDS011;5727;42.600;23.028;2023-06-14T00:47:26;8.67;;;5.20;;
11344;SDS011;5727;42.600;23.028;2023-06-14T00:49:53;7.67;;;5.33;;
11344;SDS011;5727;42.600;23.028;2023-06-14T00:52:21;8.03;;;5.77;;
11344;SDS011;5727;42.600;23.028;2023-06-14T00:54:49;7.37;;;5.77;;
11344;SDS011;5727;42.600;23.028;2023-06-14T00:57:16;7.57;;;5.63;;
11344;SDS011;5727;42.600;23.028;2023-06-14T00:59:43;8.27;;;6.33;;
11344;SDS011;5727;42.600;23.028;2023-06-14T01:02:11;7.50;;;6.37;;
11344;SDS011;5727;42.600;23.028;2023-06-14T01:04:41;7.77;;;6.53;;
11344;SDS011;5727;42.600;23.028;2023-06-14T01:07:15;9.20;;;7.00;;
11344;SDS011;5727;42.600;23.028;2023-06-14T01:09:56;8.80;;;6.07;;
11344;SDS011;5727;42.600;23.028;2023-06-14T01:12:35;7.03;;;6.30;;
11344;SDS011;5727;42.600;23.028;2023-06-14T01:15:06;11.73;;;7.00;;
11344;SDS011;5727;42.600;23.028;2023-06-14T01:17:34;12.40;;;6.37;;
11344;SDS011;5727;42.600;23.028;2023-06-14T01:20:10;11.37;;;6.77;;
11344;SDS011;5727;42.600;23.028;2023-06-14T01:22:45;10.00;;;7.47;;
11344;SDS011;5727;42.600;23.028;2023-06-14T01:25:16;9.77;;;7.10;;
11344;SDS011;5727;42.600;23.028;2023-06-14T01:27:46;9.33;;;7.23;;
11344;SDS011;5727;42.600;23.028;2023-06-14T01:30:14;14.07;;;7.47;;
11344;SDS011;5727;42.600;23.028;2023-06-14T01:32:42;11.70;;;7.37;;
11344;SDS011;5727;42.600;23.028;2023-06-14T01:35:10;8.30;;;7.10;;
11344;SDS011;5727;42.600;23.028;2023-06-14T01:37:37;10.90;;;6.97;;
11344;SDS011;5727;42.600;23.028;2023-06-14T01:40:08;12.60;;;8.13;;
11344;SDS011;5727;42.600;23.028;2023-06-14T01:42:37;14.33;;;7.87;;
11344;SDS011;5727;42.600;23.028;2023-06-14T01:45:05;9.17;;;7.00;;
11344;SDS011;5727;42.600;23.028;2023-06-14T01:47:33;10.53;;;6.83;;
11344;SDS011;5727;42.600;23.028;2023-06-14T01:50:01;11.30;;;7.17;;
11344;SDS011;5727;42.600;23.028;2023-06-14T01:52:29;9.47;;;6.27;;
11344;SDS011;5727;42.600;23.028;2023-06-14T01:54:55;11.00;;;6.03;;
11344;SDS011;5727;42.600;23.028;2023-06-14T01:57:24;6.07;;;4.87;;
11344;SDS011;5727;42.600;23.028;2023-06-14T01:59:52;5.63;;;4.47;;
11344;SDS011;5727;42.600;23.028;2023-06-14T02:02:19;6.97;;;4.73;;
11344;SDS011;5727;42.600;23.028;2023-06-14T02:04:46;5.17;;;4.13;;
11344;SDS011;5727;42.600;23.028;2023-06-14T02:07:13;6.20;;;4.53;;
11344;SDS011;5727;42.600;23.028;2023-06-14T02:09:40;4.70;;;4.13;;
11344;SDS011;5727;42.600;23.028;2023-06-14T02:12:08;4.83;;;4.03;;
11344;SDS011;5727;42.600;23.028;2023-06-14T02:14:37;5.87;;;5.27;;
11344;SDS011;5727;42.600;23.028;2023-06-14T02:17:04;5.37;;;4.83;;
11344;SDS011;5727;42.600;23.028;2023-06-14T02:19:31;8.00;;;4.67;;
11344;SDS011;5727;42.600;23.028;2023-06-14T02:21:58;6.13;;;4.70;;
11344;SDS011;5727;42.600;23.028;2023-06-14T02:24:25;6.40;;;5.27;;
11344;SDS011;5727;42.600;23.028;2023-06-14T02:26:52;5.87;;;5.27;;
11344;SDS011;5727;42.600;23.028;2023-06-14T02:29:18;5.43;;;4.63;;
11344;SDS011;5727;42.600;23.028;2023-06-14T02:31:47;7.00;;;4.90;;
11344;SDS011;5727;42.600;23.028;2023-06-14T02:34:14;8.87;;;5.33;;
11344;SDS011;5727;42.600;23.028;2023-06-14T02:36:43;6.20;;;4.60;;
11344;SDS011;5727;42.600;23.028;2023-06-14T02:39:09;5.33;;;4.80;;
11344;SDS011;5727;42.600;23.028;2023-06-14T02:41:36;8.50;;;5.33;;
11344;SDS011;5727;42.600;23.028;2023-06-14T02:44:04;5.00;;;4.50;;
11344;SDS011;5727;42.600;23.028;2023-06-14T02:46:30;5.00;;;4.50;;
11344;SDS011;5727;42.600;23.028;2023-06-14T02:48:59;6.77;;;4.60;;
11344;SDS011;5727;42.600;23.028;2023-06-14T02:51:25;7.17;;;4.40;;
11344;SDS011;5727;42.600;23.028;2023-06-14T02:53:52;7.47;;;5.27;;
11344;SDS011;5727;42.600;23.028;2023-06-14T02:56:19;8.70;;;5.30;;
11344;SDS011;5727;42.600;23.028;2023-06-14T02:58:47;7.37;;;5.13;;
11344;SDS011;5727;42.600;23.028;2023-06-14T03:01:14;7.57;;;6.03;;
11344;SDS011;5727;42.600;23.028;2023-06-14T03:03:41;8.60;;;6.30;;
11344;SDS011;5727;42.600;23.028;2023-06-14T03:06:09;11.00;;;6.30;;
11344;SDS011;5727;42.600;23.028;2023-06-14T03:08:39;9.87;;;6.40;;
11344;SDS011;5727;42.600;23.028;2023-06-14T03:11:06;11.10;;;6.53;;
11344;SDS011;5727;42.600;23.028;2023-06-14T03:13:33;11.17;;;6.93;;
11344;SDS011;5727;42.600;23.028;2023-06-14T03:16:00;12.90;;;7.47;;
11344;SDS011;5727;42.600;23.028;2023-06-14T03:18:27;9.00;;;6.93;;
11344;SDS011;5727;42.600;23.028;2023-06-14T03:20:55;11.67;;;7.57;;
11344;SDS011;5727;42.600;23.028;2023-06-14T03:23:24;10.63;;;7.27;;
11344;SDS011;5727;42.600;23.028;2023-06-14T03:25:52;9.50;;;7.30;;
11344;SDS011;5727;42.600;23.028;2023-06-14T03:28:18;12.97;;;8.33;;
11344;SDS011;5727;42.600;23.028;2023-06-14T03:30:45;10.53;;;7.23;;
11344;SDS011;5727;42.600;23.028;2023-06-14T03:33:12;14.73;;;7.90;;
11344;SDS011;5727;42.600;23.028;2023-06-14T03:35:40;13.47;;;6.97;;
11344;SDS011;5727;42.600;23.028;2023-06-14T03:38:07;12.63;;;7.77;;
11344;SDS011;5727;42.600;23.028;2023-06-14T03:40:35;13.40;;;7.33;;
11344;SDS011;5727;42.600;23.028;2023-06-14T03:43:02;11.13;;;7.70;;
11344;SDS011;5727;42.600;23.028;2023-06-14T03:45:29;14.90;;;7.27;;
11344;SDS011;5727;42.600;23.028;2023-06-14T03:47:55;15.30;;;8.10;;
11344;SDS011;5727;42.600;23.028;2023-06-14T03:50:23;16.03;;;7.50;;
11344;SDS011;5727;42.600;23.028;2023-06-14T03:52:50;10.03;;;7.40;;
11344;SDS011;5727;42.600;23.028;2023-06-14T03:55:17;14.33;;;7.60;;
11344;SDS011;5727;42.600;23.028;2023-06-14T03:57:45;13.00;;;6.87;;
11344;SDS011;5727;42.600;23.028;2023-06-14T04:00:12;11.73;;;6.90;;
11344;SDS011;5727;42.600;23.028;2023-06-14T04:02:40;9.73;;;7.77;;
11344;SDS011;5727;42.600;23.028;2023-06-14T04:05:07;16.93;;;8.37;;
11344;SDS011;5727;42.600;23.028;2023-06-14T04:07:34;21.27;;;10.17;;
11344;SDS011;5727;42.600;23.028;2023-06-14T04:10:05;14.13;;;9.33;;
11344;SDS011;5727;42.600;23.028;2023-06-14T04:12:33;16.30;;;9.23;;
11344;SDS011;5727;42.600;23.028;2023-06-14T04:15:01;20.10;;;9.27;;
11344;SDS011;5727;42.600;23.028;2023-06-14T04:17:30;15.07;;;8.97;;
11344;SDS011;5727;42.600;23.028;2023-06-14T04:19:58;9.63;;;8.10;;
11344;SDS011;5727;42.600;23.028;2023-06-14T04:22:25;15.10;;;8.77;;
11344;SDS011;5727;42.600;23.028;2023-06-14T04:24:53;14.27;;;8.90;;
11344;SDS011;5727;42.600;23.028;2023-06-14T04:27:20;11.97;;;8.47;;
11344;SDS011;5727;42.600;23.028;2023-06-14T04:29:50;11.20;;;8.20;;
11344;SDS011;5727;42.600;23.028;2023-06-14T04:32:23;16.43;;;9.47;;
11344;SDS011;5727;42.600;23.028;2023-06-14T04:34:52;16.53;;;9.40;;
11344;SDS011;5727;42.600;23.028;2023-06-14T04:37:19;16.00;;;9.47;;
11344;SDS011;5727;42.600;23.028;2023-06-14T04:39:47;15.80;;;9.03;;
11344;SDS011;5727;42.600;23.028;2023-06-14T04:42:14;15.40;;;9.20;;
11344;SDS011;5727;42.600;23.028;2023-06-14T04:44:41;13.97;;;8.93;;
11344;SDS011;5727;42.600;23.028;2023-06-14T04:47:08;11.90;;;8.30;;
11344;SDS011;5727;42.600;23.028;2023-06-14T04:49:37;14.83;;;8.73;;
11344;SDS011;5727;42.600;23.028;2023-06-14T04:52:05;18.37;;;8.23;;
11344;SDS011;5727;42.600;23.028;2023-06-14T04:54:35;15.47;;;10.03;;
11344;SDS011;5727;42.600;23.028;2023-06-14T04:57:02;12.40;;;9.33;;
11344;SDS011;5727;42.600;23.028;2023-06-14T04:59:30;18.30;;;12.57;;
11344;SDS011;5727;42.600;23.028;2023-06-14T05:02:00;19.00;;;10.57;;
11344;SDS011;5727;42.600;23.028;2023-06-14T05:04:27;14.43;;;9.87;;
11344;SDS011;5727;42.600;23.028;2023-06-14T05:06:55;11.97;;;8.67;;
11344;SDS011;5727;42.600;23.028;2023-06-14T05:09:22;17.20;;;8.30;;
11344;SDS011;5727;42.600;23.028;2023-06-14T05:11:49;16.73;;;9.07;;
11344;SDS011;5727;42.600;23.028;2023-06-14T05:14:16;15.00;;;8.40;;
11344;SDS011;5727;42.600;23.028;2023-06-14T05:16:43;13.33;;;8.43;;
11344;SDS011;5727;42.600;23.028;2023-06-14T05:19:10;14.13;;;8.27;;
11344;SDS011;5727;42.600;23.028;2023-06-14T05:21:36;13.43;;;8.07;;
11344;SDS011;5727;42.600;23.028;2023-06-14T05:24:05;12.27;;;7.93;;
11344;SDS011;5727;42.600;23.028;2023-06-14T05:26:34;11.87;;;7.57;;
11344;SDS011;5727;42.600;23.028;2023-06-14T05:29:00;14.33;;;8.03;;
11344;SDS011;5727;42.600;23.028;2023-06-14T05:31:27;13.67;;;8.87;;
11344;SDS011;5727;42.600;23.028;2023-06-14T05:33:54;11.70;;;8.33;;
11344;SDS011;5727;42.600;23.028;2023-06-14T05:36:21;14.67;;;8.40;;
11344;SDS011;5727;42.600;23.028;2023-06-14T05:38:48;13.47;;;7.97;;
11344;SDS011;5727;42.600;23.028;2023-06-14T05:41:17;14.23;;;9.37;;
11344;SDS011;5727;42.600;23.028;2023-06-14T05:43:45;14.50;;;8.80;;
11344;SDS011;5727;42.600;23.028;2023-06-14T05:46:12;16.67;;;9.60;;
11344;SDS011;5727;42.600;23.028;2023-06-14T05:48:39;14.77;;;8.63;;
11344;SDS011;5727;42.600;23.028;2023-06-14T05:51:06;14.80;;;8.37;;
11344;SDS011;5727;42.600;23.028;2023-06-14T05:53:33;12.80;;;8.53;;
11344;SDS011;5727;42.600;23.028;2023-06-14T05:56:00;13.17;;;7.97;;
11344;SDS011;5727;42.600;23.028;2023-06-14T05:58:29;12.53;;;8.57;;
11344;SDS011;5727;42.600;23.028;2023-06-14T06:00:55;16.07;;;8.77;;
11344;SDS011;5727;42.600;23.028;2023-06-14T06:03:22;13.90;;;9.13;;
11344;SDS011;5727;42.600;23.028;2023-06-14T06:05:49;12.00;;;9.00;;
11344;SDS011;5727;42.600;23.028;2023-06-14T06:08:16;15.43;;;10.90;;
11344;SDS011;5727;42.600;23.028;2023-06-14T06:10:43;17.13;;;9.80;;
11344;SDS011;5727;42.600;23.028;2023-06-14T06:13:10;16.07;;;8.60;;
11344;SDS011;5727;42.600;23.028;2023-06-14T06:15:38;17.80;;;9.37;;
11344;SDS011;5727;42.600;23.028;2023-06-14T06:18:05;11.43;;;9.10;;
11344;SDS011;5727;42.600;23.028;2023-06-14T06:20:32;17.77;;;9.33;;
11344;SDS011;5727;42.600;23.028;2023-06-14T06:22:58;18.43;;;9.33;;
11344;SDS011;5727;42.600;23.028;2023-06-14T06:25:26;16.40;;;10.17;;
11344;SDS011;5727;42.600;23.028;2023-06-14T06:27:53;20.80;;;11.93;;
11344;SDS011;5727;42.600;23.028;2023-06-14T06:30:21;15.63;;;9.80;;
11344;SDS011;5727;42.600;23.028;2023-06-14T06:32:49;16.40;;;10.77;;
11344;SDS011;5727;42.600;23.028;2023-06-14T06:35:16;17.53;;;11.23;;
11344;SDS011;5727;42.600;23.028;2023-06-14T06:37:43;18.70;;;12.80;;
11344;SDS011;5727;42.600;23.028;2023-06-14T06:40:10;16.80;;;12.00;;
11344;SDS011;5727;42.600;23.028;2023-06-14T06:42:37;17.07;;;11.60;;
11344;SDS011;5727;42.600;23.028;2023-06-14T06:45:05;18.80;;;11.23;;
11344;SDS011;5727;42.600;23.028;2023-06-14T06:47:32;15.43;;;11.63;;
11344;SDS011;5727;42.600;23.028;2023-06-14T06:50:00;16.20;;;11.87;;
11344;SDS011;5727;42.600;23.028;2023-06-14T06:52:26;15.03;;;11.67;;
11344;SDS011;5727;42.600;23.028;2023-06-14T06:54:54;14.50;;;10.70;;
11344;SDS011;5727;42.600;23.028;2023-06-14T06:57:21;15.53;;;10.90;;
11344;SDS011;5727;42.600;23.028;2023-06-14T06:59:48;22.03;;;12.57;;
11344;SDS011;5727;42.600;23.028;2023-06-14T07:02:15;20.37;;;12.07;;
11344;SDS011;5727;42.600;23.028;2023-06-14T07:04:42;18.80;;;12.00;;
11344;SDS011;5727;42.600;23.028;2023-06-14T07:07:10;16.90;;;11.47;;
11344;SDS011;5727;42.600;23.028;2023-06-14T07:09:37;17.93;;;11.90;;
11344;SDS011;5727;42.600;23.028;2023-06-14T07:12:04;21.10;;;11.57;;
11344;SDS011;5727;42.600;23.028;2023-06-14T07:14:31;16.13;;;10.70;;
11344;SDS011;5727;42.600;23.028;2023-06-14T07:16:58;19.90;;;11.07;;
11344;SDS011;5727;42.600;23.028;2023-06-14T07:19:25;19.57;;;10.90;;
11344;SDS011;5727;42.600;23.028;2023-06-14T07:21:52;26.50;;;12.27;;
11344;SDS011;5727;42.600;23.028;2023-06-14T07:24:20;21.13;;;13.10;;
11344;SDS011;5727;42.600;23.028;2023-06-14T07:26:47;15.17;;;10.57;;
11344;SDS011;5727;42.600;23.028;2023-06-14T07:29:14;18.93;;;11.13;;
11344;SDS011;5727;42.600;23.028;2023-06-14T07:31:41;16.17;;;11.83;;
11344;SDS011;5727;42.600;23.028;2023-06-14T07:34:08;16.70;;;10.33;;
11344;SDS011;5727;42.600;23.028;2023-06-14T07:36:35;12.13;;;9.63;;
11344;SDS011;5727;42.600;23.028;2023-06-14T07:39:03;17.57;;;12.00;;
11344;SDS011;5727;42.600;23.028;2023-06-14T07:41:32;15.50;;;10.83;;
11344;SDS011;5727;42.600;23.028;2023-06-14T07:43:59;18.93;;;10.97;;
11344;SDS011;5727;42.600;23.028;2023-06-14T07:46:26;13.60;;;10.40;;
11344;SDS011;5727;42.600;23.028;2023-06-14T07:48:53;17.40;;;10.67;;
11344;SDS011;5727;42.600;23.028;2023-06-14T07:51:19;15.43;;;11.47;;
11344;SDS011;5727;42.600;23.028;2023-06-14T07:53:47;16.97;;;10.43;;
11344;SDS011;5727;42.600;23.028;2023-06-14T07:56:14;13.27;;;9.50;;
11344;SDS011;5727;42.600;23.028;2023-06-14T07:58:42;11.67;;;9.00;;
11344;SDS011;5727;42.600;23.028;2023-06-14T08:01:09;13.57;;;9.03;;
11344;SDS011;5727;42.600;23.028;2023-06-14T08:03:36;13.57;;;9.73;;
11344;SDS011;5727;42.600;23.028;2023-06-14T08:06:03;12.13;;;9.67;;
11344;SDS011;5727;42.600;23.028;2023-06-14T08:08:31;12.83;;;8.87;;
11344;SDS011;5727;42.600;23.028;2023-06-14T08:10:57;10.83;;;8.80;;
11344;SDS011;5727;42.600;23.028;2023-06-14T08:13:24;12.23;;;9.07;;
11344;SDS011;5727;42.600;23.028;2023-06-14T08:15:52;11.53;;;8.20;;
11344;SDS011;5727;42.600;23.028;2023-06-14T08:18:20;11.00;;;9.67;;
11344;SDS011;5727;42.600;23.028;2023-06-14T08:20:47;12.27;;;8.90;;
11344;SDS011;5727;42.600;23.028;2023-06-14T08:23:13;8.60;;;7.70;;
11344;SDS011;5727;42.600;23.028;2023-06-14T08:25:41;9.47;;;7.37;;
11344;SDS011;5727;42.600;23.028;2023-06-14T08:28:07;11.80;;;8.50;;
11344;SDS011;5727;42.600;23.028;2023-06-14T08:30:34;8.27;;;7.33;;
11344;SDS011;5727;42.600;23.028;2023-06-14T08:33:02;9.20;;;7.43;;
11344;SDS011;5727;42.600;23.028;2023-06-14T08:35:29;8.37;;;7.00;;
11344;SDS011;5727;42.600;23.028;2023-06-14T08:37:56;8.50;;;7.27;;
11344;SDS011;5727;42.600;23.028;2023-06-14T08:40:23;8.37;;;7.57;;
11344;SDS011;5727;42.600;23.028;2023-06-14T08:42:50;8.13;;;7.33;;
11344;SDS011;5727;42.600;23.028;2023-06-14T08:45:19;8.53;;;7.23;;
11344;SDS011;5727;42.600;23.028;2023-06-14T08:47:46;7.77;;;6.63;;
11344;SDS011;5727;42.600;23.028;2023-06-14T08:50:18;9.97;;;7.17;;
11344;SDS011;5727;42.600;23.028;2023-06-14T08:52:46;9.03;;;7.60;;
11344;SDS011;5727;42.600;23.028;2023-06-14T08:55:18;8.23;;;6.80;;
11344;SDS011;5727;42.600;23.028;2023-06-14T08:57:45;8.90;;;7.97;;
11344;SDS011;5727;42.600;23.028;2023-06-14T09:00:14;8.87;;;7.90;;
11344;SDS011;5727;42.600;23.028;2023-06-14T09:02:42;7.67;;;6.90;;
11344;SDS011;5727;42.600;23.028;2023-06-14T09:05:09;7.40;;;6.67;;
11344;SDS011;5727;42.600;23.028;2023-06-14T09:07:40;8.73;;;7.83;;
11344;SDS011;5727;42.600;23.028;2023-06-14T09:10:10;8.17;;;7.37;;
11344;SDS011;5727;42.600;23.028;2023-06-14T09:12:39;9.20;;;7.90;;
11344;SDS011;5727;42.600;23.028;2023-06-14T09:15:06;7.50;;;6.07;;
11344;SDS011;5727;42.600;23.028;2023-06-14T09:17:34;9.63;;;7.20;;
11344;SDS011;5727;42.600;23.028;2023-06-14T09:20:02;9.63;;;6.57;;
11344;SDS011;5727;42.600;23.028;2023-06-14T09:22:31;7.53;;;6.40;;
11344;SDS011;5727;42.600;23.028;2023-06-14T09:25:00;7.90;;;6.20;;
11344;SDS011;5727;42.600;23.028;2023-06-14T09:27:27;8.43;;;7.53;;
11344;SDS011;5727;42.600;23.028;2023-06-14T09:29:55;7.57;;;6.73;;
11344;SDS011;5727;42.600;23.028;2023-06-14T09:32:22;7.27;;;6.43;;
11344;SDS011;5727;42.600;23.028;2023-06-14T09:34:49;9.23;;;6.57;;
11344;SDS011;5727;42.600;23.028;2023-06-14T09:37:28;6.80;;;6.20;;
11344;SDS011;5727;42.600;23.028;2023-06-14T09:39:56;7.37;;;6.60;;
11344;SDS011;5727;42.600;23.028;2023-06-14T09:42:25;5.60;;;5.07;;
11344;SDS011;5727;42.600;23.028;2023-06-14T09:44:53;6.20;;;5.43;;
11344;SDS011;5727;42.600;23.028;2023-06-14T09:47:21;6.33;;;5.03;;
11344;SDS011;5727;42.600;23.028;2023-06-14T09:49:48;6.30;;;4.80;;
11344;SDS011;5727;42.600;23.028;2023-06-14T09:52:15;6.43;;;5.77;;
11344;SDS011;5727;42.600;23.028;2023-06-14T09:54:44;5.47;;;4.97;;
11344;SDS011;5727;42.600;23.028;2023-06-14T09:57:12;5.70;;;4.87;;
11344;SDS011;5727;42.600;23.028;2023-06-14T09:59:42;6.70;;;5.90;;
11344;SDS011;5727;42.600;23.028;2023-06-14T10:02:11;5.63;;;5.13;;
11344;SDS011;5727;42.600;23.028;2023-06-14T10:04:46;7.53;;;6.20;;
11344;SDS011;5727;42.600;23.028;2023-06-14T10:07:18;8.10;;;6.70;;
11344;SDS011;5727;42.600;23.028;2023-06-14T10:09:46;9.13;;;7.30;;
11344;SDS011;5727;42.600;23.028;2023-06-14T10:12:16;7.63;;;6.63;;
11344;SDS011;5727;42.600;23.028;2023-06-14T10:14:48;7.67;;;6.87;;
11344;SDS011;5727;42.600;23.028;2023-06-14T10:17:19;8.27;;;6.33;;
11344;SDS011;5727;42.600;23.028;2023-06-14T10:19:54;7.13;;;6.03;;
11344;SDS011;5727;42.600;23.028;2023-06-14T10:22:23;7.93;;;5.80;;
11344;SDS011;5727;42.600;23.028;2023-06-14T10:24:55;6.70;;;5.77;;
11344;SDS011;5727;42.600;23.028;2023-06-14T10:27:22;5.60;;;4.73;;
11344;SDS011;5727;42.600;23.028;2023-06-14T10:30:04;5.73;;;5.20;;
11344;SDS011;5727;42.600;23.028;2023-06-14T10:32:33;7.73;;;5.90;;
11344;SDS011;5727;42.600;23.028;2023-06-14T10:35:00;7.13;;;5.27;;
11344;SDS011;5727;42.600;23.028;2023-06-14T10:37:30;5.80;;;5.13;;
11344;SDS011;5727;42.600;23.028;2023-06-14T10:39:57;6.57;;;4.70;;
11344;SDS011;5727;42.600;23.028;2023-06-14T10:42:27;5.80;;;4.50;;
11344;SDS011;5727;42.600;23.028;2023-06-14T10:44:57;5.97;;;5.37;;
11344;SDS011;5727;42.600;23.028;2023-06-14T10:47:30;6.27;;;5.67;;
11344;SDS011;5727;42.600;23.028;2023-06-14T10:49:58;8.87;;;5.83;;
11344;SDS011;5727;42.600;23.028;2023-06-14T10:52:32;7.07;;;5.60;;
11344;SDS011;5727;42.600;23.028;2023-06-14T10:55:07;8.23;;;6.03;;
11344;SDS011;5727;42.600;23.028;2023-06-14T10:57:36;7.13;;;6.33;;
11344;SDS011;5727;42.600;23.028;2023-06-14T11:00:05;7.23;;;5.23;;
11344;SDS011;5727;42.600;23.028;2023-06-14T11:05:50;10.60;;;5.87;;
11344;SDS011;5727;42.600;23.028;2023-06-14T11:08:26;9.33;;;6.90;;
11344;SDS011;5727;42.600;23.028;2023-06-14T11:11:05;8.73;;;6.97;;
11344;SDS011;5727;42.600;23.028;2023-06-14T11:13:33;8.30;;;5.37;;
11344;SDS011;5727;42.600;23.028;2023-06-14T11:16:00;9.07;;;6.63;;
11344;SDS011;5727;42.600;23.028;2023-06-14T11:18:28;7.20;;;5.83;;
11344;SDS011;5727;42.600;23.028;2023-06-14T11:20:56;10.17;;;6.67;;
11344;SDS011;5727;42.600;23.028;2023-06-14T11:23:23;11.53;;;8.00;;
11344;SDS011;5727;42.600;23.028;2023-06-14T11:25:50;8.90;;;7.43;;
11344;SDS011;5727;42.600;23.028;2023-06-14T11:28:17;11.47;;;7.73;;
11344;SDS011;5727;42.600;23.028;2023-06-14T11:30:45;10.52;;;7.80;;
11344;SDS011;5727;42.600;23.028;2023-06-14T11:33:16;7.43;;;6.28;;
11344;SDS011;5727;42.600;23.028;2023-06-14T11:35:43;7.60;;;6.05;;
11344;SDS011;5727;42.600;23.028;2023-06-14T11:38:12;9.35;;;6.70;;
11344;SDS011;5727;42.600;23.028;2023-06-14T11:40:40;6.53;;;5.03;;
11344;SDS011;5727;42.600;23.028;2023-06-14T11:43:07;6.15;;;5.55;;
11344;SDS011;5727;42.600;23.028;2023-06-14T11:45:34;8.43;;;5.85;;
11344;SDS011;5727;42.600;23.028;2023-06-14T11:48:01;8.00;;;7.03;;
11344;SDS011;5727;42.600;23.028;2023-06-14T11:50:27;11.57;;;6.35;;
11344;SDS011;5727;42.600;23.028;2023-06-14T11:52:54;8.98;;;6.90;;
11344;SDS011;5727;42.600;23.028;2023-06-14T11:55:23;6.97;;;5.75;;
11344;SDS011;5727;42.600;23.028;2023-06-14T11:57:51;8.85;;;5.63;;
11344;SDS011;5727;42.600;23.028;2023-06-14T12:00:22;6.57;;;5.93;;
11344;SDS011;5727;42.600;23.028;2023-06-14T12:02:53;10.52;;;6.30;;
11344;SDS011;5727;42.600;23.028;2023-06-14T12:05:21;10.55;;;6.90;;
11344;SDS011;5727;42.600;23.028;2023-06-14T12:07:48;9.15;;;7.22;;
11344;SDS011;5727;42.600;23.028;2023-06-14T12:10:15;12.35;;;7.88;;
11344;SDS011;5727;42.600;23.028;2023-06-14T12:12:44;7.57;;;6.75;;
11344;SDS011;5727;42.600;23.028;2023-06-14T12:15:11;14.38;;;8.18;;
11344;SDS011;5727;42.600;23.028;2023-06-14T12:17:38;9.65;;;6.25;;
11344;SDS011;5727;42.600;23.028;2023-06-14T12:20:07;9.20;;;7.90;;
11344;SDS011;5727;42.600;23.028;2023-06-14T12:22:39;11.60;;;8.32;;
11344;SDS011;5727;42.600;23.028;2023-06-14T12:25:06;8.75;;;6.90;;
11344;SDS011;5727;42.600;23.028;2023-06-14T12:27:34;13.75;;;7.72;;
11344;SDS011;5727;42.600;23.028;2023-06-14T12:30:03;7.18;;;6.45;;
11344;SDS011;5727;42.600;23.028;2023-06-14T12:32:32;7.97;;;6.53;;
11344;SDS011;5727;42.600;23.028;2023-06-14T12:34:59;9.53;;;7.50;;
11344;SDS011;5727;42.600;23.028;2023-06-14T12:37:26;9.00;;;8.20;;
11344;SDS011;5727;42.600;23.028;2023-06-14T12:39:52;11.37;;;7.90;;
11344;SDS011;5727;42.600;23.028;2023-06-14T12:42:19;11.80;;;8.20;;
11344;SDS011;5727;42.600;23.028;2023-06-14T12:44:46;12.03;;;8.13;;
11344;SDS011;5727;42.600;23.028;2023-06-14T12:47:14;11.37;;;9.00;;
11344;SDS011;5727;42.600;23.028;2023-06-14T12:49:41;12.90;;;8.47;;
11344;SDS011;5727;42.600;23.028;2023-06-14T12:52:08;8.80;;;7.97;;
11344;SDS011;5727;42.600;23.028;2023-06-14T12:54:35;9.73;;;7.40;;
11344;SDS011;5727;42.600;23.028;2023-06-14T12:57:01;11.83;;;6.80;;
11344;SDS011;5727;42.600;23.028;2023-06-14T12:59:28;6.87;;;6.17;;
11344;SDS011;5727;42.600;23.028;2023-06-14T13:01:58;9.67;;;6.07;;
11344;SDS011;5727;42.600;23.028;2023-06-14T13:04:30;8.47;;;6.73;;
11344;SDS011;5727;42.600;23.028;2023-06-14T13:06:56;8.13;;;6.73;;
11344;SDS011;5727;42.600;23.028;2023-06-14T13:09:23;10.53;;;8.40;;
11344;SDS011;5727;42.600;23.028;2023-06-14T13:11:50;10.53;;;8.23;;
11344;SDS011;5727;42.600;23.028;2023-06-14T13:14:16;9.97;;;8.87;;
11344;SDS011;5727;42.600;23.028;2023-06-14T13:16:43;8.67;;;7.63;;
11344;SDS011;5727;42.600;23.028;2023-06-14T13:19:10;9.67;;;8.40;;
11344;SDS011;5727;42.600;23.028;2023-06-14T13:21:38;10.47;;;8.03;;
11344;SDS011;5727;42.600;23.028;2023-06-14T13:24:05;8.37;;;7.47;;
11344;SDS011;5727;42.600;23.028;2023-06-14T13:26:33;13.57;;;9.07;;
11344;SDS011;5727;42.600;23.028;2023-06-14T13:29:00;9.67;;;8.67;;
11344;SDS011;5727;42.600;23.028;2023-06-14T13:31:27;11.80;;;8.87;;
11344;SDS011;5727;42.600;23.028;2023-06-14T13:33:55;9.43;;;7.67;;
11344;SDS011;5727;42.600;23.028;2023-06-14T13:36:21;10.03;;;8.50;;
11344;SDS011;5727;42.600;23.028;2023-06-14T13:38:50;8.27;;;7.47;;
11344;SDS011;5727;42.600;23.028;2023-06-14T13:41:18;9.67;;;8.40;;
11344;SDS011;5727;42.600;23.028;2023-06-14T13:43:44;11.13;;;8.33;;
11344;SDS011;5727;42.600;23.028;2023-06-14T13:46:11;9.73;;;8.17;;
11344;SDS011;5727;42.600;23.028;2023-06-14T13:48:38;8.90;;;7.77;;
11344;SDS011;5727;42.600;23.028;2023-06-14T13:51:04;9.60;;;7.63;;
11344;SDS011;5727;42.600;23.028;2023-06-14T13:53:32;8.93;;;8.03;;
11344;SDS011;5727;42.600;23.028;2023-06-14T13:56:00;10.53;;;8.33;;
11344;SDS011;5727;42.600;23.028;2023-06-14T13:58:26;10.03;;;7.87;;
11344;SDS011;5727;42.600;23.028;2023-06-14T14:00:54;8.10;;;7.07;;
11344;SDS011;5727;42.600;23.028;2023-06-14T14:03:21;8.47;;;5.97;;
11344;SDS011;5727;42.600;23.028;2023-06-14T14:05:47;7.38;;;6.50;;
11344;SDS011;5727;42.600;23.028;2023-06-14T14:08:14;7.30;;;6.38;;
11344;SDS011;5727;42.600;23.028;2023-06-14T14:10:41;8.52;;;5.60;;
11344;SDS011;5727;42.600;23.028;2023-06-14T14:13:09;6.93;;;5.40;;
11344;SDS011;5727;42.600;23.028;2023-06-14T14:15:37;9.48;;;6.35;;
11344;SDS011;5727;42.600;23.028;2023-06-14T14:18:04;19.08;;;8.38;;
11344;SDS011;5727;42.600;23.028;2023-06-14T14:20:32;9.00;;;6.38;;
11344;SDS011;5727;42.600;23.028;2023-06-14T14:22:58;9.82;;;5.80;;
11344;SDS011;5727;42.600;23.028;2023-06-14T14:25:25;7.27;;;6.00;;
11344;SDS011;5727;42.600;23.028;2023-06-14T14:27:52;5.60;;;5.10;;
11344;SDS011;5727;42.600;23.028;2023-06-14T14:30:20;5.70;;;4.93;;
11344;SDS011;5727;42.600;23.028;2023-06-14T14:32:48;7.17;;;5.60;;
11344;SDS011;5727;42.600;23.028;2023-06-14T14:35:16;8.17;;;7.00;;
11344;SDS011;5727;42.600;23.028;2023-06-14T14:37:43;10.97;;;6.53;;
11344;SDS011;5727;42.600;23.028;2023-06-14T14:40:10;9.30;;;7.47;;
11344;SDS011;5727;42.600;23.028;2023-06-14T14:42:38;11.93;;;9.13;;
11344;SDS011;5727;42.600;23.028;2023-06-14T14:45:05;18.27;;;8.80;;
11344;SDS011;5727;42.600;23.028;2023-06-14T14:47:34;20.47;;;9.17;;